Time;durP1;ratioP1;P1;durP2;ratioP2;P2;SDS_P1;SDS_P2;PMS_P1;PMS_P2;Temp;Humidity;BMP_temperature;BMP_pressure;BME280_temperature;BME280_humidity;BME280_pressure;Samples;Min_cycle;Max_cycle;Signal;HPM_P1;HPM_P2
2022/03/25 00:02:03;;;;;;;498.88;76.13;;;;;;;;;;4962224;28;20059;-71
2022/03/25 00:04:30;;;;;;;145.55;70.72;;;;;;;;;;4968326;28;20051;-70
2022/03/25 00:06:56;;;;;;;196.77;72.28;;;;;;;;;;4967796;28;20051;-70
2022/03/25 00:09:22;;;;;;;657.45;78.78;;;;;;;;;;4970748;28;20035;-70
2022/03/25 00:11:48;;;;;;;854.72;81.38;;;;;;;;;;4972007;28;20486;-70
2022/03/25 00:14:14;;;;;;;590.78;67.20;;;;;;;;;;4971224;28;20050;-70
2022/03/25 00:16:41;;;;;;;547.00;63.03;;;;;;;;;;4970030;28;20089;-70
2022/03/25 00:19:08;;;;;;;951.28;76.80;;;;;;;;;;4970207;28;20508;-70
2022/03/25 00:21:34;;;;;;;817.33;75.45;;;;;;;;;;4970780;28;20569;-70
2022/03/25 00:24:00;;;;;;;798.50;74.82;;;;;;;;;;4967207;28;20047;-70
2022/03/25 00:26:26;;;;;;;701.08;71.28;;;;;;;;;;4958544;28;20127;-70
2022/03/25 00:28:52;;;;;;;559.53;66.40;;;;;;;;;;4964810;28;20051;-70
2022/03/25 00:31:18;;;;;;;838.38;71.80;;;;;;;;;;4971944;28;20039;-70
2022/03/25 00:33:49;;;;;;;972.15;79.30;;;;;;;;;;4963510;28;20133;-70
2022/03/25 00:36:16;;;;;;;724.40;71.27;;;;;;;;;;4972732;28;20082;-71
2022/03/25 00:38:42;;;;;;;769.92;74.13;;;;;;;;;;4970271;28;20047;-70
2022/03/25 00:41:08;;;;;;;658.72;70.00;;;;;;;;;;4973040;28;20046;-71
2022/03/25 00:43:34;;;;;;;326.90;61.47;;;;;;;;;;4973302;28;20055;-70
2022/03/25 00:46:00;;;;;;;536.25;64.93;;;;;;;;;;4973596;28;20126;-71
2022/03/25 00:48:27;;;;;;;359.38;55.25;;;;;;;;;;4975038;28;20516;-70
2022/03/25 00:50:54;;;;;;;318.27;58.88;;;;;;;;;;4964645;28;20102;-70
2022/03/25 00:53:20;;;;;;;367.90;61.55;;;;;;;;;;4967393;28;20041;-71
2022/03/25 00:55:46;;;;;;;508.45;68.28;;;;;;;;;;4973523;28;20509;-70
2022/03/25 00:58:14;;;;;;;334.65;65.25;;;;;;;;;;4975513;28;20046;-71
2022/03/25 01:00:41;;;;;;;527.50;67.88;;;;;;;;;;4971017;28;20062;-71
2022/03/25 01:03:08;;;;;;;571.70;69.20;;;;;;;;;;4973351;28;20114;-71
2022/03/25 01:05:34;;;;;;;511.35;70.28;;;;;;;;;;4974425;28;20039;-71
2022/03/25 01:08:00;;;;;;;516.50;66.78;;;;;;;;;;4976120;28;20047;-71
2022/03/25 01:10:26;;;;;;;625.15;70.18;;;;;;;;;;4975154;28;20046;-70
2022/03/25 01:12:52;;;;;;;662.67;74.55;;;;;;;;;;4973790;28;20517;-70
2022/03/25 01:15:18;;;;;;;494.35;70.57;;;;;;;;;;4975077;28;20062;-70
2022/03/25 01:17:44;;;;;;;300.83;65.70;;;;;;;;;;4974768;28;20410;-71
2022/03/25 01:20:10;;;;;;;616.72;67.75;;;;;;;;;;4974175;28;20043;-72
2022/03/25 01:22:36;;;;;;;331.13;62.35;;;;;;;;;;4973212;28;20110;-70
2022/03/25 01:25:03;;;;;;;407.98;61.95;;;;;;;;;;4975088;28;20081;-70
2022/03/25 01:27:29;;;;;;;415.15;60.80;;;;;;;;;;4969339;28;20039;-71
2022/03/25 01:29:55;;;;;;;319.65;60.33;;;;;;;;;;4965574;28;20453;-71
2022/03/25 01:32:21;;;;;;;519.47;68.28;;;;;;;;;;4971331;28;20043;-70
2022/03/25 01:34:47;;;;;;;556.08;74.53;;;;;;;;;;4974807;28;20051;-70
2022/03/25 01:37:13;;;;;;;321.13;64.75;;;;;;;;;;4974660;28;20395;-70
2022/03/25 01:39:39;;;;;;;464.60;66.50;;;;;;;;;;4974637;28;20060;-70
2022/03/25 01:42:05;;;;;;;448.15;68.35;;;;;;;;;;4975051;28;20446;-71
2022/03/25 01:44:31;;;;;;;462.55;71.43;;;;;;;;;;4953512;28;20051;-70
2022/03/25 01:46:59;;;;;;;531.88;71.07;;;;;;;;;;4956628;29;20097;-71
2022/03/25 01:49:25;;;;;;;488.63;67.68;;;;;;;;;;4961252;28;20047;-70
2022/03/25 01:51:53;;;;;;;321.45;65.82;;;;;;;;;;4966606;28;20043;-71
2022/03/25 01:54:21;;;;;;;310.27;63.40;;;;;;;;;;4972789;28;20443;-72
2022/03/25 01:56:51;;;;;;;436.17;66.63;;;;;;;;;;4973955;28;20050;-70
2022/03/25 01:59:17;;;;;;;250.07;61.90;;;;;;;;;;4973930;28;20038;-70
2022/03/25 02:01:43;;;;;;;558.65;69.85;;;;;;;;;;4972338;28;20096;-70
2022/03/25 02:04:09;;;;;;;249.50;57.15;;;;;;;;;;4972586;28;20101;-70
2022/03/25 02:06:35;;;;;;;280.38;57.10;;;;;;;;;;4967720;28;20043;-72
2022/03/25 02:09:02;;;;;;;373.23;56.72;;;;;;;;;;4971533;28;20050;-71
2022/03/25 02:11:28;;;;;;;261.73;53.97;;;;;;;;;;4974378;28;20078;-71
2022/03/25 02:13:54;;;;;;;384.00;56.20;;;;;;;;;;4963289;28;20039;-71
2022/03/25 02:16:33;;;;;;;400.50;56.72;;;;;;;;;;4972885;28;20049;-71
2022/03/25 02:18:59;;;;;;;247.43;52.38;;;;;;;;;;4973753;28;20043;-72
2022/03/25 02:21:29;;;;;;;296.75;53.72;;;;;;;;;;4974341;28;20407;-72
2022/03/25 02:23:55;;;;;;;359.42;53.00;;;;;;;;;;4969092;28;20402;-70
2022/03/25 02:26:22;;;;;;;374.13;55.58;;;;;;;;;;4972168;28;20049;-71
2022/03/25 02:28:48;;;;;;;393.02;54.70;;;;;;;;;;4970026;28;20089;-70
2022/03/25 02:31:17;;;;;;;442.17;54.22;;;;;;;;;;4966726;28;20074;-71
2022/03/25 02:33:43;;;;;;;747.85;64.22;;;;;;;;;;4972852;28;20058;-70
2022/03/25 02:36:09;;;;;;;1009.28;74.07;;;;;;;;;;4974228;28;20122;-70
2022/03/25 02:38:35;;;;;;;709.83;63.45;;;;;;;;;;4973972;28;20047;-70
2022/03/25 02:41:01;;;;;;;627.20;65.05;;;;;;;;;;4973642;28;20494;-70
2022/03/25 02:43:28;;;;;;;833.67;74.82;;;;;;;;;;4974059;28;20094;-71
2022/03/25 02:45:54;;;;;;;802.28;71.03;;;;;;;;;;4973340;28;20074;-71
2022/03/25 02:48:20;;;;;;;669.70;66.38;;;;;;;;;;4973184;28;20490;-70
2022/03/25 02:50:48;;;;;;;647.22;64.00;;;;;;;;;;4962866;28;20086;-71
2022/03/25 02:53:15;;;;;;;646.13;65.05;;;;;;;;;;4970233;28;20046;-70
2022/03/25 02:55:41;;;;;;;787.10;71.10;;;;;;;;;;4971873;28;20051;-71
2022/03/25 02:58:08;;;;;;;727.70;68.30;;;;;;;;;;4967543;28;20046;-70
2022/03/25 03:00:34;;;;;;;619.90;63.05;;;;;;;;;;4963553;28;20490;-70
2022/03/25 03:03:00;;;;;;;774.85;72.38;;;;;;;;;;4961944;28;20510;-70
2022/03/25 03:05:30;;;;;;;777.67;73.63;;;;;;;;;;4970862;28;20138;-70
2022/03/25 03:07:56;;;;;;;591.13;65.25;;;;;;;;;;4973354;28;20039;-70
2022/03/25 03:10:22;;;;;;;841.47;78.60;;;;;;;;;;4972071;28;20517;-70
2022/03/25 03:12:48;;;;;;;669.17;71.43;;;;;;;;;;4974226;28;20050;-70
2022/03/25 03:15:17;;;;;;;676.65;72.53;;;;;;;;;;4970566;28;20046;-70
2022/03/25 03:17:43;;;;;;;419.70;62.22;;;;;;;;;;4970134;28;20043;-70
2022/03/25 03:20:10;;;;;;;516.05;65.60;;;;;;;;;;4979392;28;20049;-71
2022/03/25 03:22:36;;;;;;;681.90;74.05;;;;;;;;;;4972736;28;20413;-70
2022/03/25 03:25:03;;;;;;;618.45;71.10;;;;;;;;;;4972997;28;20043;-70
2022/03/25 03:27:29;;;;;;;792.88;75.18;;;;;;;;;;4972534;28;20413;-71
2022/03/25 03:29:55;;;;;;;604.92;68.82;;;;;;;;;;4966728;28;20078;-71
2022/03/25 03:32:22;;;;;;;600.88;70.53;;;;;;;;;;4971617;28;20482;-71
2022/03/25 03:34:48;;;;;;;450.90;66.45;;;;;;;;;;4970285;28;20058;-71
2022/03/25 03:37:14;;;;;;;558.08;68.60;;;;;;;;;;4973891;28;20502;-71
2022/03/25 03:39:40;;;;;;;450.23;62.35;;;;;;;;;;4981274;28;20047;-70
2022/03/25 03:42:07;;;;;;;275.80;60.05;;;;;;;;;;4973281;28;20046;-70
2022/03/25 03:44:35;;;;;;;589.30;64.80;;;;;;;;;;4972474;28;20101;-71
2022/03/25 03:47:01;;;;;;;358.48;62.10;;;;;;;;;;4972219;28;20059;-70
2022/03/25 03:49:27;;;;;;;377.27;58.15;;;;;;;;;;4971398;28;20146;-70
2022/03/25 03:51:53;;;;;;;306.35;60.28;;;;;;;;;;4972450;28;20090;-70
2022/03/25 03:54:19;;;;;;;515.50;64.57;;;;;;;;;;4972690;28;20533;-70
2022/03/25 03:56:45;;;;;;;537.10;62.22;;;;;;;;;;4955789;28;20058;-70
2022/03/25 03:59:11;;;;;;;356.58;59.40;;;;;;;;;;4966574;28;20117;-70
2022/03/25 04:01:37;;;;;;;351.58;54.75;;;;;;;;;;4970571;28;20462;-70
2022/03/25 04:04:03;;;;;;;333.98;57.40;;;;;;;;;;4969534;28;20042;-70
2022/03/25 04:06:29;;;;;;;399.15;58.97;;;;;;;;;;4973100;28;20086;-71
2022/03/25 04:08:56;;;;;;;505.15;60.53;;;;;;;;;;4973847;28;20079;-70
2022/03/25 04:11:22;;;;;;;463.35;61.70;;;;;;;;;;4970557;28;20102;-70
2022/03/25 04:13:48;;;;;;;376.60;57.75;;;;;;;;;;4972690;28;20043;-70
2022/03/25 04:16:14;;;;;;;413.30;61.47;;;;;;;;;;4970723;28;20130;-70
2022/03/25 04:18:40;;;;;;;339.23;55.42;;;;;;;;;;4971450;28;20491;-70
2022/03/25 04:21:06;;;;;;;290.50;54.67;;;;;;;;;;4967070;28;20050;-70
2022/03/25 04:23:32;;;;;;;299.83;53.85;;;;;;;;;;4976401;28;20050;-70
2022/03/25 04:25:58;;;;;;;284.73;54.00;;;;;;;;;;4975564;28;20039;-69
2022/03/25 04:28:24;;;;;;;308.48;54.58;;;;;;;;;;4973976;28;20051;-70
2022/03/25 04:30:50;;;;;;;481.67;62.45;;;;;;;;;;4974587;28;20058;-69
2022/03/25 04:33:16;;;;;;;250.85;53.85;;;;;;;;;;4973405;28;20090;-71
2022/03/25 04:35:42;;;;;;;217.38;50.55;;;;;;;;;;4965293;28;20119;-71
2022/03/25 04:38:09;;;;;;;285.35;50.95;;;;;;;;;;4965416;28;20054;-71
2022/03/25 04:40:35;;;;;;;377.25;53.08;;;;;;;;;;4963653;28;20058;-70
2022/03/25 04:43:01;;;;;;;276.17;50.63;;;;;;;;;;4973549;28;20057;-71
2022/03/25 04:45:28;;;;;;;273.85;50.85;;;;;;;;;;4968932;28;20039;-70
2022/03/25 04:47:54;;;;;;;458.95;56.22;;;;;;;;;;4975587;28;20059;-71
2022/03/25 04:50:21;;;;;;;317.95;51.50;;;;;;;;;;4975277;28;20043;-70
2022/03/25 04:52:48;;;;;;;236.07;48.55;;;;;;;;;;4973288;28;20039;-70
2022/03/25 04:55:14;;;;;;;282.60;52.13;;;;;;;;;;4975648;28;20417;-71
2022/03/25 04:57:40;;;;;;;238.82;50.47;;;;;;;;;;4971255;28;20418;-71
2022/03/25 05:00:07;;;;;;;375.60;54.50;;;;;;;;;;4974860;28;20129;-71
2022/03/25 05:02:33;;;;;;;295.63;50.42;;;;;;;;;;4972948;28;20050;-71
2022/03/25 05:04:59;;;;;;;341.50;52.20;;;;;;;;;;4972232;28;20039;-70
2022/03/25 05:07:25;;;;;;;346.15;53.95;;;;;;;;;;4965431;28;20494;-71
2022/03/25 05:09:51;;;;;;;223.90;47.20;;;;;;;;;;4966320;28;20501;-71
2022/03/25 05:12:17;;;;;;;280.65;50.15;;;;;;;;;;4973342;28;20042;-71
2022/03/25 05:14:43;;;;;;;256.88;48.22;;;;;;;;;;4964808;28;20054;-71
2022/03/25 05:17:09;;;;;;;228.18;48.72;;;;;;;;;;4971026;28;20039;-71
2022/03/25 05:19:36;;;;;;;293.50;50.80;;;;;;;;;;4966036;28;20051;-71
2022/03/25 05:22:02;;;;;;;282.23;51.35;;;;;;;;;;4973770;28;20046;-71
2022/03/25 05:24:28;;;;;;;254.13;49.25;;;;;;;;;;4966546;28;20079;-71
2022/03/25 05:26:56;;;;;;;252.02;47.33;;;;;;;;;;4968979;28;20117;-70
2022/03/25 05:29:23;;;;;;;390.98;51.53;;;;;;;;;;4975566;28;20047;-71
2022/03/25 05:31:49;;;;;;;293.45;47.25;;;;;;;;;;4974806;28;20495;-71
2022/03/25 05:34:15;;;;;;;373.23;50.75;;;;;;;;;;4974605;28;20058;-71
2022/03/25 05:36:41;;;;;;;241.90;46.03;;;;;;;;;;4973091;28;20051;-71
2022/03/25 05:39:07;;;;;;;337.65;49.97;;;;;;;;;;4965177;28;20827;-70
2022/03/25 05:41:33;;;;;;;194.95;45.78;;;;;;;;;;4969095;28;20051;-70
2022/03/25 05:44:00;;;;;;;328.70;48.45;;;;;;;;;;4974198;28;20049;-71
2022/03/25 05:46:26;;;;;;;230.05;45.47;;;;;;;;;;4975518;28;20047;-71
2022/03/25 05:48:52;;;;;;;295.15;46.95;;;;;;;;;;4973716;28;20050;-70
2022/03/25 05:51:18;;;;;;;245.10;45.22;;;;;;;;;;4957365;28;20446;-72
2022/03/25 05:53:44;;;;;;;193.30;43.05;;;;;;;;;;4975234;28;20074;-71
2022/03/25 05:56:11;;;;;;;222.73;43.03;;;;;;;;;;4972966;28;20058;-71
2022/03/25 05:58:37;;;;;;;228.65;43.95;;;;;;;;;;4969165;28;20133;-71
2022/03/25 06:01:04;;;;;;;228.05;42.60;;;;;;;;;;4969368;28;20051;-71
2022/03/25 06:03:33;;;;;;;126.20;41.58;;;;;;;;;;4964482;28;20381;-71
2022/03/25 06:05:59;;;;;;;102.35;39.70;;;;;;;;;;4967819;28;20066;-71
2022/03/25 06:08:25;;;;;;;85.75;39.72;;;;;;;;;;4971744;28;20494;-71
2022/03/25 06:10:51;;;;;;;134.50;42.25;;;;;;;;;;4968734;28;20043;-71
2022/03/25 06:13:18;;;;;;;146.23;40.78;;;;;;;;;;4970723;28;20043;-70
2022/03/25 06:15:44;;;;;;;88.80;42.03;;;;;;;;;;4970951;28;20046;-72
2022/03/25 06:18:10;;;;;;;57.03;41.67;;;;;;;;;;4974830;28;20073;-71
2022/03/25 06:20:36;;;;;;;65.65;41.50;;;;;;;;;;4963693;28;20059;-71
2022/03/25 06:23:02;;;;;;;67.43;40.63;;;;;;;;;;4971814;28;20043;-70
2022/03/25 06:25:29;;;;;;;93.10;40.63;;;;;;;;;;4963197;28;20486;-71
2022/03/25 06:27:56;;;;;;;58.67;39.33;;;;;;;;;;4975192;28;20082;-71
2022/03/25 06:30:24;;;;;;;55.33;38.20;;;;;;;;;;4975026;28;20050;-70
2022/03/25 06:32:54;;;;;;;59.75;36.40;;;;;;;;;;4958410;28;20776;-71
2022/03/25 06:35:21;;;;;;;67.93;38.05;;;;;;;;;;4971655;28;20055;-70
2022/03/25 06:37:47;;;;;;;67.00;37.85;;;;;;;;;;4972202;28;20042;-70
2022/03/25 06:40:14;;;;;;;73.30;38.10;;;;;;;;;;4974919;28;20043;-71
2022/03/25 06:42:40;;;;;;;87.80;40.30;;;;;;;;;;4972766;28;20050;-71
2022/03/25 06:45:08;;;;;;;64.15;39.35;;;;;;;;;;4973173;28;20084;-71
2022/03/25 06:47:34;;;;;;;48.03;39.97;;;;;;;;;;4974325;28;20047;-71
2022/03/25 06:50:00;;;;;;;43.60;38.80;;;;;;;;;;4970931;28;20422;-71
2022/03/25 06:52:26;;;;;;;44.47;38.83;;;;;;;;;;4973267;28;20050;-71
2022/03/25 06:54:52;;;;;;;42.75;37.97;;;;;;;;;;4972997;28;20490;-71
2022/03/25 06:57:18;;;;;;;45.25;39.83;;;;;;;;;;4956892;28;20051;-71
2022/03/25 06:59:45;;;;;;;43.60;38.83;;;;;;;;;;4974583;28;20051;-71
2022/03/25 07:02:11;;;;;;;45.80;40.00;;;;;;;;;;4974076;28;20046;-71
2022/03/25 07:04:38;;;;;;;46.40;41.30;;;;;;;;;;4974489;28;20082;-71
2022/03/25 07:07:04;;;;;;;42.20;37.67;;;;;;;;;;4973205;28;20125;-71
2022/03/25 07:09:31;;;;;;;45.85;40.53;;;;;;;;;;4974307;28;20039;-71
2022/03/25 07:11:57;;;;;;;44.63;39.70;;;;;;;;;;4974266;28;20070;-71
2022/03/25 07:14:23;;;;;;;43.75;39.13;;;;;;;;;;4972378;28;20082;-71
2022/03/25 07:16:49;;;;;;;43.63;39.05;;;;;;;;;;4973935;28;20427;-71
2022/03/25 07:19:15;;;;;;;41.35;37.15;;;;;;;;;;4974234;28;20449;-71
2022/03/25 07:21:41;;;;;;;43.28;38.58;;;;;;;;;;4973110;28;20134;-71
2022/03/25 07:24:07;;;;;;;43.88;37.95;;;;;;;;;;4973909;28;20142;-72
2022/03/25 07:26:33;;;;;;;43.28;37.70;;;;;;;;;;4973840;28;20043;-69
2022/03/25 07:28:59;;;;;;;53.80;44.60;;;;;;;;;;4956597;28;20521;-71
2022/03/25 07:31:28;;;;;;;53.92;43.30;;;;;;;;;;4972483;28;20074;-70
2022/03/25 07:33:58;;;;;;;51.85;45.20;;;;;;;;;;4973093;28;20636;-70
2022/03/25 07:36:24;;;;;;;53.70;46.03;;;;;;;;;;4972797;28;20054;-70
2022/03/25 07:38:51;;;;;;;53.83;45.38;;;;;;;;;;4973891;28;20046;-70
2022/03/25 07:41:17;;;;;;;52.00;44.40;;;;;;;;;;4964578;28;20047;-71
2022/03/25 07:43:43;;;;;;;52.22;44.72;;;;;;;;;;4965325;28;20070;-71
2022/03/25 07:46:10;;;;;;;52.15;43.92;;;;;;;;;;4969843;28;20042;-70
2022/03/25 07:48:36;;;;;;;56.58;47.47;;;;;;;;;;4963246;28;20122;-72
2022/03/25 07:51:03;;;;;;;54.35;46.78;;;;;;;;;;4954279;28;20043;-71
2022/03/25 07:53:29;;;;;;;53.30;46.38;;;;;;;;;;4972180;28;20057;-71
2022/03/25 07:55:55;;;;;;;54.28;46.53;;;;;;;;;;4970065;28;20194;-70
2022/03/25 07:58:21;;;;;;;57.63;47.47;;;;;;;;;;4977905;28;20101;-71
2022/03/25 08:00:48;;;;;;;59.13;48.13;;;;;;;;;;4977489;28;20054;-70
2022/03/25 08:03:16;;;;;;;54.35;46.08;;;;;;;;;;4978030;28;20057;-70
2022/03/25 08:05:42;;;;;;;56.45;47.45;;;;;;;;;;4977150;28;20557;-70
2022/03/25 08:08:08;;;;;;;56.97;47.38;;;;;;;;;;4977402;28;20126;-71
2022/03/25 08:10:35;;;;;;;54.72;46.95;;;;;;;;;;4975898;28;20142;-72
2022/03/25 08:13:01;;;;;;;56.33;47.35;;;;;;;;;;4977313;28;20045;-71
2022/03/25 08:15:28;;;;;;;55.55;45.38;;;;;;;;;;4977639;28;20042;-71
2022/03/25 08:17:56;;;;;;;54.53;41.90;;;;;;;;;;4972753;28;20570;-71
2022/03/25 08:20:23;;;;;;;58.83;43.95;;;;;;;;;;4977389;28;20078;-70
2022/03/25 08:22:49;;;;;;;56.30;43.97;;;;;;;;;;4976076;28;20109;-71
2022/03/25 08:28:01;;;;;;;51.58;37.85;;;;;;;;;;4976143;28;20051;-72
2022/03/25 08:30:33;;;;;;;49.67;39.33;;;;;;;;;;4977144;28;20057;-70
2022/03/25 08:33:01;;;;;;;52.85;40.78;;;;;;;;;;4959932;28;20054;-71
2022/03/25 08:35:27;;;;;;;48.97;38.63;;;;;;;;;;4976939;28;20410;-70
2022/03/25 08:37:53;;;;;;;46.53;36.88;;;;;;;;;;4975893;28;20055;-71
2022/03/25 08:40:23;;;;;;;48.95;37.83;;;;;;;;;;4975313;28;20102;-70
2022/03/25 08:42:49;;;;;;;48.13;36.97;;;;;;;;;;4976834;28;20053;-70
2022/03/25 08:45:16;;;;;;;50.03;38.40;;;;;;;;;;4976883;28;20039;-70
2022/03/25 08:47:43;;;;;;;49.05;39.13;;;;;;;;;;4974947;28;20043;-70
2022/03/25 08:50:12;;;;;;;47.20;37.25;;;;;;;;;;4960351;28;20038;-70
2022/03/25 08:52:38;;;;;;;49.75;38.42;;;;;;;;;;4976844;28;20066;-69
2022/03/25 08:55:04;;;;;;;52.15;38.40;;;;;;;;;;4976693;28;20458;-69
2022/03/25 08:57:31;;;;;;;46.58;38.63;;;;;;;;;;4976426;28;20051;-70
2022/03/25 08:59:58;;;;;;;47.72;35.50;;;;;;;;;;4976475;28;20051;-70
2022/03/25 09:02:24;;;;;;;48.47;36.22;;;;;;;;;;4975659;28;20055;-70
2022/03/25 09:04:50;;;;;;;46.70;33.85;;;;;;;;;;4975210;28;20105;-70
2022/03/25 09:07:16;;;;;;;47.80;35.60;;;;;;;;;;4976173;28;20075;-70
2022/03/25 09:09:42;;;;;;;49.17;35.80;;;;;;;;;;4964887;28;20047;-70
2022/03/25 09:12:08;;;;;;;45.25;33.25;;;;;;;;;;4974465;28;20468;-70
2022/03/25 09:14:35;;;;;;;49.25;35.78;;;;;;;;;;4976247;28;20109;-70
2022/03/25 09:17:01;;;;;;;46.58;35.20;;;;;;;;;;4976247;28;20046;-70
2022/03/25 09:19:27;;;;;;;48.15;34.08;;;;;;;;;;4976228;28;20051;-70
2022/03/25 09:21:53;;;;;;;46.78;34.15;;;;;;;;;;4975065;28;20050;-70
2022/03/25 09:24:19;;;;;;;44.90;32.33;;;;;;;;;;4975046;28;20043;-70
2022/03/25 09:26:45;;;;;;;46.42;31.88;;;;;;;;;;4975992;28;20498;-69
2022/03/25 09:29:11;;;;;;;44.45;32.35;;;;;;;;;;4974956;28;20169;-70
2022/03/25 09:31:38;;;;;;;43.03;29.83;;;;;;;;;;4976065;28;20050;-70
2022/03/25 09:36:49;;;;;;;40.42;29.98;;;;;;;;;;4975902;28;20418;-70
2022/03/25 09:39:15;;;;;;;41.67;30.63;;;;;;;;;;4976166;28;20530;-71
2022/03/25 09:41:42;;;;;;;44.50;29.70;;;;;;;;;;4960876;28;20048;-70
2022/03/25 09:44:08;;;;;;;49.10;30.42;;;;;;;;;;4959782;28;20070;-70
2022/03/25 09:46:41;;;;;;;44.38;30.42;;;;;;;;;;4975383;28;20082;-71
2022/03/25 09:49:07;;;;;;;41.25;30.52;;;;;;;;;;4971461;28;20058;-71
2022/03/25 09:51:33;;;;;;;40.22;30.40;;;;;;;;;;4975744;28;20174;-71
2022/03/25 09:53:59;;;;;;;40.72;30.77;;;;;;;;;;4975289;28;20517;-71
2022/03/25 09:56:25;;;;;;;41.72;30.73;;;;;;;;;;4974927;28;20086;-69
2022/03/25 09:58:51;;;;;;;43.67;30.58;;;;;;;;;;4975517;28;20057;-70
2022/03/25 10:01:17;;;;;;;40.75;30.67;;;;;;;;;;4974976;28;20473;-73
2022/03/25 10:03:43;;;;;;;40.53;30.83;;;;;;;;;;4974263;28;20055;-71
2022/03/25 10:06:11;;;;;;;41.72;30.42;;;;;;;;;;4973459;28;20190;-70
2022/03/25 10:08:40;;;;;;;42.58;31.77;;;;;;;;;;4974117;28;20042;-70
2022/03/25 10:11:19;;;;;;;43.35;30.67;;;;;;;;;;4974988;28;20061;-70
2022/03/25 10:13:45;;;;;;;40.70;29.98;;;;;;;;;;4971852;28;20070;-70
2022/03/25 10:16:27;;;;;;;41.22;29.95;;;;;;;;;;4973020;28;20051;-70
2022/03/25 10:18:54;;;;;;;41.92;30.05;;;;;;;;;;4970370;28;20046;-70
2022/03/25 10:21:20;;;;;;;41.55;31.25;;;;;;;;;;4974115;28;20513;-72
2022/03/25 10:23:46;;;;;;;41.47;29.80;;;;;;;;;;4973867;28;20047;-71
2022/03/25 10:26:12;;;;;;;38.28;30.25;;;;;;;;;;4973788;28;20043;-71
2022/03/25 10:28:44;;;;;;;42.20;30.55;;;;;;;;;;4970287;28;20055;-71
2022/03/25 10:31:12;;;;;;;44.65;30.40;;;;;;;;;;4955555;29;20411;-71
2022/03/25 10:33:57;;;;;;;42.20;29.00;;;;;;;;;;4970864;28;20061;-71
2022/03/25 10:36:25;;;;;;;41.35;27.73;;;;;;;;;;4973014;28;20051;-70
2022/03/25 10:38:58;;;;;;;40.83;27.98;;;;;;;;;;4955395;29;20122;-69
2022/03/25 10:41:25;;;;;;;40.85;29.13;;;;;;;;;;4957013;28;20050;-69
2022/03/25 10:44:04;;;;;;;40.40;26.65;;;;;;;;;;4969659;28;20051;-69
2022/03/25 10:46:36;;;;;;;42.08;25.40;;;;;;;;;;4955683;29;20118;-70
2022/03/25 10:49:05;;;;;;;39.40;24.75;;;;;;;;;;4954129;29;20105;-69
2022/03/25 10:51:31;;;;;;;36.22;24.73;;;;;;;;;;4955099;29;20055;-69
2022/03/25 10:53:59;;;;;;;31.25;21.88;;;;;;;;;;4955540;29;20391;-69
2022/03/25 10:56:26;;;;;;;42.85;24.38;;;;;;;;;;4961821;28;20047;-69
2022/03/25 10:58:53;;;;;;;40.50;26.33;;;;;;;;;;4974518;28;20051;-69
2022/03/25 11:01:19;;;;;;;42.10;24.85;;;;;;;;;;4974737;28;20126;-69
2022/03/25 11:03:45;;;;;;;36.35;25.25;;;;;;;;;;4973230;28;20382;-69
2022/03/25 11:06:15;;;;;;;35.38;23.83;;;;;;;;;;4973815;28;20038;-69
2022/03/25 11:08:42;;;;;;;39.23;24.17;;;;;;;;;;4974644;28;20065;-70
2022/03/25 11:11:09;;;;;;;35.92;25.13;;;;;;;;;;4959036;28;20245;-69
2022/03/25 11:13:35;;;;;;;36.85;24.67;;;;;;;;;;4971636;28;20049;-70
2022/03/25 11:16:02;;;;;;;35.70;24.75;;;;;;;;;;4971462;28;20080;-70
2022/03/25 11:18:28;;;;;;;35.13;23.67;;;;;;;;;;4973589;28;20186;-70
2022/03/25 11:20:56;;;;;;;38.92;24.20;;;;;;;;;;4974224;28;20603;-68
2022/03/25 11:23:26;;;;;;;35.60;24.88;;;;;;;;;;4974176;28;20116;-69
2022/03/25 11:25:53;;;;;;;34.63;24.15;;;;;;;;;;4974153;28;20051;-68
2022/03/25 11:28:32;;;;;;;37.25;25.38;;;;;;;;;;4961098;28;20065;-69
2022/03/25 11:30:59;;;;;;;38.10;25.23;;;;;;;;;;4972804;28;20054;-69
2022/03/25 11:33:25;;;;;;;35.75;25.02;;;;;;;;;;4975298;28;20446;-69
2022/03/25 11:36:11;;;;;;;35.67;24.15;;;;;;;;;;4974090;28;20050;-70
2022/03/25 11:38:37;;;;;;;40.10;24.83;;;;;;;;;;4966545;28;20047;-70
2022/03/25 11:41:20;;;;;;;38.05;27.17;;;;;;;;;;4973409;28;20046;-70
2022/03/25 11:44:06;;;;;;;39.85;26.75;;;;;;;;;;4974060;28;20109;-70
2022/03/25 11:46:32;;;;;;;40.97;26.15;;;;;;;;;;4973333;28;20047;-70
2022/03/25 11:49:17;;;;;;;37.35;25.83;;;;;;;;;;4959123;28;20110;-68
2022/03/25 11:51:43;;;;;;;36.42;25.15;;;;;;;;;;4967698;28;20109;-70
2022/03/25 11:54:28;;;;;;;35.88;25.98;;;;;;;;;;4974653;28;20478;-68
2022/03/25 11:56:56;;;;;;;37.45;26.45;;;;;;;;;;4960717;28;20075;-67
2022/03/25 11:59:22;;;;;;;38.15;26.15;;;;;;;;;;4966716;28;20054;-69
2022/03/25 12:01:49;;;;;;;38.80;27.33;;;;;;;;;;4972682;28;20494;-68
2022/03/25 12:04:33;;;;;;;44.72;28.30;;;;;;;;;;4973458;28;20043;-69
2022/03/25 12:07:01;;;;;;;38.05;26.73;;;;;;;;;;4973181;28;20050;-72
2022/03/25 12:09:34;;;;;;;44.53;26.35;;;;;;;;;;4973509;28;20050;-70
2022/03/25 12:12:00;;;;;;;37.90;25.90;;;;;;;;;;4973134;28;20046;-69
2022/03/25 12:14:31;;;;;;;39.90;24.33;;;;;;;;;;4973304;28;20054;-67
2022/03/25 12:16:58;;;;;;;39.35;27.50;;;;;;;;;;4972236;28;20070;-70
2022/03/25 12:19:30;;;;;;;41.47;26.90;;;;;;;;;;4973333;28;20049;-69
2022/03/25 12:21:57;;;;;;;41.92;28.85;;;;;;;;;;4973026;28;20051;-69
2022/03/25 12:24:24;;;;;;;43.15;27.55;;;;;;;;;;4973296;28;20074;-69
2022/03/25 12:27:02;;;;;;;42.00;26.20;;;;;;;;;;4969751;28;20054;-69
2022/03/25 12:29:38;;;;;;;44.42;29.40;;;;;;;;;;4965747;28;20051;-69
2022/03/25 12:32:06;;;;;;;46.05;29.30;;;;;;;;;;4954361;29;20055;-69
2022/03/25 12:34:35;;;;;;;45.72;29.30;;;;;;;;;;4962442;28;20047;-69
2022/03/25 12:37:03;;;;;;;45.35;29.70;;;;;;;;;;4973555;28;20057;-69
2022/03/25 12:39:30;;;;;;;42.05;28.42;;;;;;;;;;4973106;28;20117;-68
2022/03/25 12:41:56;;;;;;;44.90;28.60;;;;;;;;;;4969140;28;20054;-69
2022/03/25 12:44:27;;;;;;;38.95;26.85;;;;;;;;;;4976232;28;20753;-68
2022/03/25 12:46:53;;;;;;;41.72;27.23;;;;;;;;;;4976889;28;20051;-68
2022/03/25 12:49:19;;;;;;;36.65;24.08;;;;;;;;;;4976684;28;20042;-69
2022/03/25 12:51:55;;;;;;;33.03;21.20;;;;;;;;;;4971711;28;20051;-69
2022/03/25 12:54:21;;;;;;;33.30;22.33;;;;;;;;;;4958512;28;20055;-69
2022/03/25 12:56:54;;;;;;;33.40;21.45;;;;;;;;;;4962754;28;20065;-69
2022/03/25 12:59:28;;;;;;;35.17;22.38;;;;;;;;;;4976055;28;20058;-68
2022/03/25 13:01:54;;;;;;;32.70;19.60;;;;;;;;;;4975453;28;20078;-69
2022/03/25 13:04:32;;;;;;;30.38;20.08;;;;;;;;;;4975184;28;20046;-69
2022/03/25 13:06:58;;;;;;;28.75;18.77;;;;;;;;;;4975091;28;20418;-69
2022/03/25 13:09:25;;;;;;;31.75;21.10;;;;;;;;;;4974891;28;20039;-69
2022/03/25 13:11:56;;;;;;;30.25;19.23;;;;;;;;;;4976377;28;20047;-70
2022/03/25 13:14:23;;;;;;;29.00;18.08;;;;;;;;;;4976687;28;20090;-69
2022/03/25 13:16:49;;;;;;;31.10;14.30;;;;;;;;;;4974816;28;20047;-69
2022/03/25 13:19:16;;;;;;;28.40;16.35;;;;;;;;;;4976263;28;20051;-69
2022/03/25 13:21:43;;;;;;;27.50;14.68;;;;;;;;;;4967084;28;20495;-70
2022/03/25 13:24:09;;;;;;;25.67;13.45;;;;;;;;;;4959848;28;20059;-69
2022/03/25 13:26:37;;;;;;;19.42;11.75;;;;;;;;;;4976060;28;20478;-69
2022/03/25 13:29:05;;;;;;;23.65;13.30;;;;;;;;;;4975597;28;20461;-69
2022/03/25 13:31:31;;;;;;;21.65;11.30;;;;;;;;;;4975456;28;20059;-69
2022/03/25 13:33:57;;;;;;;20.42;10.25;;;;;;;;;;4974626;28;20055;-68
2022/03/25 13:36:25;;;;;;;22.80;10.55;;;;;;;;;;4974389;28;20589;-69
2022/03/25 13:38:52;;;;;;;23.27;10.45;;;;;;;;;;4974113;28;20046;-69
2022/03/25 13:41:19;;;;;;;23.73;10.20;;;;;;;;;;4975203;28;20038;-69
2022/03/25 13:43:47;;;;;;;19.20;10.10;;;;;;;;;;4975473;28;20481;-69
2022/03/25 13:46:19;;;;;;;22.10;10.73;;;;;;;;;;4973399;28;20043;-69
2022/03/25 13:48:47;;;;;;;21.35;10.63;;;;;;;;;;4974919;28;20096;-69
2022/03/25 13:51:19;;;;;;;21.35;10.55;;;;;;;;;;4965799;28;20046;-69
2022/03/25 13:53:45;;;;;;;20.95;10.95;;;;;;;;;;4972888;28;20047;-69
2022/03/25 13:56:16;;;;;;;18.73;10.90;;;;;;;;;;4974815;28;20490;-69
2022/03/25 13:58:51;;;;;;;23.25;12.85;;;;;;;;;;4975577;28;20490;-69
2022/03/25 14:01:21;;;;;;;25.13;14.00;;;;;;;;;;4975081;28;20541;-69
2022/03/25 14:04:02;;;;;;;23.88;13.68;;;;;;;;;;4975323;28;20414;-68
2022/03/25 14:06:32;;;;;;;24.25;14.35;;;;;;;;;;4975369;28;20494;-69
2022/03/25 14:08:58;;;;;;;28.23;15.40;;;;;;;;;;4975092;28;20498;-69
2022/03/25 14:11:34;;;;;;;25.80;13.70;;;;;;;;;;4974859;28;20051;-69
2022/03/25 14:14:00;;;;;;;24.27;11.63;;;;;;;;;;4975088;28;20053;-69
2022/03/25 14:16:31;;;;;;;25.45;13.30;;;;;;;;;;4973290;28;20039;-69
2022/03/25 14:18:58;;;;;;;25.85;15.25;;;;;;;;;;4974086;28;20529;-68